createdAt,value
2016-12-03T19:41:59.637Z,1028.521
2016-12-03T19:44:48.817Z,1028.540
2016-12-03T19:47:42.872Z,1028.552
2016-12-03T19:50:36.970Z,1028.557
2016-12-03T19:56:25.104Z,1028.572
2016-12-03T19:59:19.206Z,1028.589
2016-12-03T20:02:13.387Z,1028.586
2016-12-03T20:05:07.390Z,1028.621
2016-12-03T20:08:01.654Z,1028.614
2016-12-03T20:10:55.623Z,1028.643
2016-12-03T20:13:49.628Z,1028.639
2016-12-03T20:16:43.689Z,1028.646
2016-12-03T20:19:37.766Z,1028.640
2016-12-03T20:22:32.069Z,1028.679
2016-12-03T20:25:26.153Z,1028.697
2016-12-03T20:28:20.183Z,1028.682
2016-12-03T20:31:14.279Z,1028.661
2016-12-03T20:34:08.238Z,1028.706
2016-12-03T20:37:02.311Z,1028.672
2016-12-03T20:39:56.409Z,1028.633
2016-12-03T20:42:52.048Z,1028.645
2016-12-03T20:45:45.246Z,1028.652
2016-12-03T20:48:39.452Z,1028.660
2016-12-03T20:51:33.571Z,1028.675
2016-12-03T20:54:27.662Z,1028.696
2016-12-03T20:57:21.727Z,1028.699
2016-12-03T21:00:15.788Z,1028.713
2016-12-03T21:03:09.876Z,1028.726
2016-12-03T21:06:04.794Z,1028.726
2016-12-03T21:11:52.232Z,1028.676
2016-12-03T21:23:29.128Z,1028.702
2016-12-03T21:26:23.161Z,1028.681
2016-12-03T21:29:17.188Z,1028.681
2016-12-03T21:32:11.441Z,1028.700
2016-12-03T21:40:54.104Z,1028.728
2016-12-03T21:52:30.110Z,1028.745
2016-12-03T21:55:24.030Z,1028.728
2016-12-03T21:58:18.188Z,1028.753
2016-12-03T22:09:55.315Z,1028.711
2016-12-03T22:12:49.494Z,1028.726
2016-12-03T22:15:43.489Z,1028.726
2016-12-03T22:18:38.086Z,1028.749
2016-12-03T22:21:32.132Z,1028.756
2016-12-03T22:27:20.116Z,1028.758
2016-12-03T22:30:14.186Z,1028.797
2016-12-03T22:36:02.398Z,1028.765
2016-12-03T22:38:56.471Z,1028.750
2016-12-03T22:41:50.529Z,1028.747
2016-12-03T22:44:44.654Z,1028.757
2016-12-03T22:47:38.655Z,1028.772
2016-12-03T22:50:33.332Z,1028.861
2016-12-03T22:53:27.379Z,1028.832
2016-12-03T22:56:21.924Z,1028.750
2016-12-03T22:59:15.468Z,1028.742
2016-12-03T23:02:09.590Z,1028.757
2016-12-03T23:05:03.619Z,1028.780
2016-12-03T23:07:57.989Z,1028.775
2016-12-03T23:19:34.017Z,1028.769
2016-12-03T23:22:28.102Z,1028.698
2016-12-03T23:25:22.203Z,1028.723
2016-12-03T23:28:16.251Z,1028.734
2016-12-03T23:34:04.239Z,1028.783
2016-12-03T23:36:58.299Z,1028.787
2016-12-03T23:54:22.346Z,1028.913
2016-12-03T23:57:16.372Z,1028.920
